Flight Information

DEPARTURE
DENVER, CO
Elevation:
5884
Runways:
10/28 - 4800x75 - ASPH-G
17R/35L - 7001x75 - ASPH-G
17L/35R - 10001x100 - ASPH-G
H1 - 50x50 - CONC-G
Active PE Departure:
17L - 17R
Current PE ATIS:
D
Altimeter:
30.59
Remarks:
ATIS:
120.3 303-799-6722
Clearance Delivery:
128.6
Ground:
121.8
Tower:
CENTENNIAL TOWER 118.9
DESTINATION
,
Elevation:
TPA:
1000 (est.)


6083.4 NM80° True-11° Var69° HDG

Flight Plan:
(click to file on line)

1. Type
2. Aircraft Identification
3. Aircraft Type / Special Equipment
4. True Airspeed
kts
5. Departure Airport
(ICAO code)
6. Arriving Airport
(ICAO code)
7. Cruising Altitude
ft
8. Alternate Airport
(ICAO code)
9. Route of Flight
10. Remarks


00:00:00 Departure ATIS: Destination ATIS:

Clearance Limit:
Route:
Altitude: Expect in minutes
Frequency:
Transponder: (7500 Hijack / 7600 Lost Comms / 7700 Emergency)


KAPA 211753Z 00000KT 10SM FEW080 FEW200 13/M01 A3057 RMK AO2 SLP336 T01281006 10128 20039 58002
Time: 2021-09-21T17:53:00Z
1632247493
Winds: calm
Visibility: 10.0 sm
Clouds (AGL): FEW 8000
FEW 20000
Temperature: 12.8 C
Dew Point: -0.6 C
Pressure: 30.569881 in Hgbr


Notes:

Data extracted from FAA Digital Chart Supplement. Effective: 0901Z Thursday, AUG 12, 2021 to 0901Z Thursday, OCT 7, 2021
Current ATIS data is provided courtisy of PilotEdge.